Sumise Maru No.8 — JK5581 — position and weather

sailwx.info

Track history (hours):
 
Tides and Currents Weather Stations Pressure Air Temp Water Temp Dewpoint Dewpoint Depression Visibility Wind Speed Wind Dir Waves Ship Positions

Sumise Maru No.8

Last reported at 2018-Jun-22 17:55 UTC. Time now 2018-Jun-25 17:49 UTC.
Position N 33°25' E 135°07'.

Length 99 m; draft 6.8 m.

Type: Cargo ship. MMSI: 431401788.

Date/timePositionNaut miles runAvg speedWind from/ knotsBaromVisibWave heightAir tempDewpointWater temp
2018-Jun-22 17:55N 33°25' E 135°07'611.7
2018-Jun-22 17:23N 33°26' E 135°14'411.5
2018-Jun-22 17:00N 33°25' E 135°20'  
2018-Jun-19 06:21N 35°12' E 139°46'412.9
2018-Jun-19 06:00N 35°16' E 139°46'613.0
2018-Jun-19 05:31N 35°22' E 139°42'612.8
2018-Jun-19 05:01N 35°27' E 139°47'611.7
2018-Jun-19 04:30N 35°32' E 139°51'611.4
2018-Jun-19 04:00N 35°37' E 139°46'2 0.1
2018-Jun-18 13:18N 35°38' E 139°46'0 1.2
2018-Jun-18 13:00N 35°38' E 139°46'4 7.6
2018-Jun-18 12:30N 35°35' E 139°48'611.3
2018-Jun-18 12:00N 35°30' E 139°52'611.3
2018-Jun-18 11:30N 35°27' E 139°47'510.4
2018-Jun-18 11:00N 35°27' E 139°40'1 2.4
2018-Jun-18 10:27N 35°29' E 139°40'0 0.0
2018-Jun-18 10:00N 35°29' E 139°40'0 0.0
2018-Jun-18 09:30N 35°29' E 139°40'0 0.0
2018-Jun-18 09:00N 35°29' E 139°40'0 0.0
2018-Jun-18 08:30N 35°29' E 139°40'0 0.0
2018-Jun-18 08:00N 35°29' E 139°40'0 0.0
2018-Jun-18 07:30N 35°29' E 139°40'0 0.0
2018-Jun-18 07:00N 35°29' E 139°40'0 0.0
2018-Jun-18 06:30N 35°29' E 139°40'0 0.0
2018-Jun-18 06:00N 35°29' E 139°40'0 0.0
2018-Jun-18 05:30N 35°29' E 139°40'0 0.0
2018-Jun-18 05:00N 35°29' E 139°40'0 0.0
2018-Jun-18 04:30N 35°29' E 139°40'0 0.0
2018-Jun-18 04:00N 35°29' E 139°40'2 4.4
2018-Jun-18 03:30N 35°27' E 139°41'4 8.6
2018-Jun-18 03:01N 35°24' E 139°45'0 0.5
2018-Jun-18 02:29N 35°24' E 139°45'0 0.0
2018-Jun-18 01:59N 35°24' E 139°45'0 0.0
2018-Jun-18 01:29N 35°24' E 139°45'0 0.0
2018-Jun-18 00:56N 35°24' E 139°45'0 0.0
2018-Jun-18 00:29N 35°24' E 139°45'0 0.0
2018-Jun-17 23:59N 35°24' E 139°45'0 0.0
2018-Jun-17 23:29N 35°24' E 139°45'0 0.0
2018-Jun-17 22:59N 35°24' E 139°45'0 0.0
2018-Jun-17 22:29N 35°24' E 139°45'0 0.0
2018-Jun-17 21:59N 35°24' E 139°45'0 0.0
2018-Jun-17 21:29N 35°24' E 139°45'0 0.0
2018-Jun-17 20:59N 35°24' E 139°45'0 0.0
2018-Jun-17 20:29N 35°24' E 139°45'0 0.0
2018-Jun-17 19:53N 35°24' E 139°45'0 0.1
2018-Jun-17 19:29N 35°24' E 139°45'2 4.9
2018-Jun-17 19:00N 35°22' E 139°43'611.6
2018-Jun-17 18:30N 35°16' E 139°46'611.7
2018-Jun-17 18:00N 35°10' E 139°47'253 5.4
2018-Jun-15 19:16N 33°54' E 134°54'413.7
2018-Jun-15 19:00N 33°57' E 134°55'713.4
2018-Jun-15 18:30N 34°04' E 134°56'713.8
2018-Jun-15 18:00N 34°11' E 134°57'714.9
2018-Jun-15 17:30N 34°18' E 134°59'713.2
2018-Jun-15 17:00N 34°24' E 135°03'714.3
2018-Jun-15 16:30N 34°29' E 135°09'714.1
2018-Jun-15 16:00N 34°33' E 135°16'713.6
2018-Jun-15 15:30N 34°38' E 135°22'5 9.0
2018-Jun-15 14:59N 34°40' E 135°27'0 0.1
2018-Jun-15 14:29N 34°40' E 135°27'0 0.0
2018-Jun-15 13:59N 34°40' E 135°27'0 0.0
2018-Jun-15 13:29N 34°40' E 135°27'0 0.0
2018-Jun-15 12:59N 34°40' E 135°27'0 0.0
2018-Jun-15 12:29N 34°40' E 135°27'0 0.0
2018-Jun-15 11:59N 34°40' E 135°27'0 0.0
2018-Jun-15 11:29N 34°40' E 135°27'0 0.0
2018-Jun-15 10:59N 34°40' E 135°27'0 0.0
2018-Jun-15 10:29N 34°40' E 135°27'0 0.0
2018-Jun-15 09:53N 34°40' E 135°27'0 0.0
2018-Jun-15 09:29N 34°40' E 135°27'0 0.0
2018-Jun-15 08:53N 34°40' E 135°27'0 0.0
2018-Jun-15 08:29N 34°40' E 135°27'0 0.0
2018-Jun-15 07:59N 34°40' E 135°27'0 0.0
2018-Jun-15 07:29N 34°40' E 135°27'0 0.0
2018-Jun-15 06:59N 34°40' E 135°27'0 0.0
2018-Jun-15 06:17N 34°40' E 135°27'0 0.0
2018-Jun-15 05:59N 34°40' E 135°27'0 0.0
2018-Jun-15 05:17N 34°40' E 135°27'0 0.0
2018-Jun-15 04:58N 34°40' E 135°27'2 3.9
2018-Jun-15 04:30N 34°39' E 135°25'610.6
2018-Jun-15 03:59N 34°36' E 135°19'612.0
2018-Jun-15 03:30N 34°35' E 135°13'612.5
2018-Jun-15 03:00N 34°35' E 135°05'712.5
2018-Jun-15 02:29N 34°37' E 134°57'611.9
2018-Jun-15 02:01N 34°38' E 134°51'612.0
2018-Jun-15 01:30N 34°39' E 134°44'611.7
2018-Jun-15 01:00N 34°42' E 134°37'811.7
2018-Jun-15 00:19N 34°43' E 134°27'1 0.1
2018-Jun-14 14:26N 34°42' E 134°28'613.6
2018-Jun-14 14:00N 34°43' E 134°35'713.4
2018-Jun-14 13:30N 34°40' E 134°43'713.8
2018-Jun-14 13:00N 34°38' E 134°51'916.0
2018-Jun-14 12:27N 34°37' E 135°02'612.8
2018-Jun-14 12:01N 34°32' E 135°04'714.6
2018-Jun-14 11:31N 34°25' E 135°03'815.1
2018-Jun-14 11:01N 34°18' E 134°60'714.4
2018-Jun-14 10:30N 34°11' E 134°59'713.8
2018-Jun-14 10:00N 34°04' E 135°00'714.1
2018-Jun-14 09:30N 33°57' E 135°00'713.6
2018-Jun-14 09:00N 33°50' E 135°01'24811.3
2018-Jun-13 11:00N 35°11' E 139°46'611.4
2018-Jun-13 10:30N 35°17' E 139°45'612.6
2018-Jun-13 10:00N 35°23' E 139°42'612.7
2018-Jun-13 09:30N 35°27' E 139°48'611.3
2018-Jun-13 08:59N 35°33' E 139°51'611.6
2018-Jun-13 08:30N 35°37' E 139°46'2 0.2
2018-Jun-12 22:04N 35°38' E 139°45'0 0.6
2018-Jun-12 21:42N 35°38' E 139°46'1 4.3
2018-Jun-12 21:29N 35°37' E 139°46'4 8.6
2018-Jun-12 21:00N 35°34' E 139°49'2 3.2
2018-Jun-12 20:28N 35°34' E 139°51'0 0.0
2018-Jun-12 19:58N 35°34' E 139°51'0 0.0
2018-Jun-12 19:28N 35°34' E 139°51'0 0.1
2018-Jun-12 18:58N 35°34' E 139°51'0 0.0
2018-Jun-12 18:28N 35°34' E 139°51'0 0.0
2018-Jun-12 17:58N 35°34' E 139°51'  
Track history (hours):
 
Tides and Currents Weather Stations Pressure Air Temp Water Temp Dewpoint Dewpoint Depression Visibility Wind Speed Wind Dir Waves Ship Positions

Sumise Maru No.8

Last reported at 2018-Jun-22 17:55 UTC. Time now 2018-Jun-25 17:49 UTC.
Position N 33°25' E 135°07'.

Length 99 m; draft 6.8 m.

Type: Cargo ship. MMSI: 431401788.

Date/timePositionNaut miles runAvg speedWind from/ knotsBaromVisibWave heightAir tempDewpointWater temp
2018-Jun-22 17:55N 33°25' E 135°07'611.7
2018-Jun-22 17:23N 33°26' E 135°14'411.5
2018-Jun-22 17:00N 33°25' E 135°20'  
2018-Jun-19 06:21N 35°12' E 139°46'412.9
2018-Jun-19 06:00N 35°16' E 139°46'613.0
2018-Jun-19 05:31N 35°22' E 139°42'612.8
2018-Jun-19 05:01N 35°27' E 139°47'611.7
2018-Jun-19 04:30N 35°32' E 139°51'611.4
2018-Jun-19 04:00N 35°37' E 139°46'2 0.1
2018-Jun-18 13:18N 35°38' E 139°46'0 1.2
2018-Jun-18 13:00N 35°38' E 139°46'4 7.6
2018-Jun-18 12:30N 35°35' E 139°48'611.3
2018-Jun-18 12:00N 35°30' E 139°52'611.3
2018-Jun-18 11:30N 35°27' E 139°47'510.4
2018-Jun-18 11:00N 35°27' E 139°40'1 2.4
2018-Jun-18 10:27N 35°29' E 139°40'0 0.0
2018-Jun-18 10:00N 35°29' E 139°40'0 0.0
2018-Jun-18 09:30N 35°29' E 139°40'0 0.0
2018-Jun-18 09:00N 35°29' E 139°40'0 0.0
2018-Jun-18 08:30N 35°29' E 139°40'0 0.0
2018-Jun-18 08:00N 35°29' E 139°40'0 0.0
2018-Jun-18 07:30N 35°29' E 139°40'0 0.0
2018-Jun-18 07:00N 35°29' E 139°40'0 0.0
2018-Jun-18 06:30N 35°29' E 139°40'0 0.0
2018-Jun-18 06:00N 35°29' E 139°40'0 0.0
2018-Jun-18 05:30N 35°29' E 139°40'0 0.0
2018-Jun-18 05:00N 35°29' E 139°40'0 0.0
2018-Jun-18 04:30N 35°29' E 139°40'0 0.0
2018-Jun-18 04:00N 35°29' E 139°40'2 4.4
2018-Jun-18 03:30N 35°27' E 139°41'4 8.6
2018-Jun-18 03:01N 35°24' E 139°45'0 0.5
2018-Jun-18 02:29N 35°24' E 139°45'0 0.0
2018-Jun-18 01:59N 35°24' E 139°45'0 0.0
2018-Jun-18 01:29N 35°24' E 139°45'0 0.0
2018-Jun-18 00:56N 35°24' E 139°45'0 0.0
2018-Jun-18 00:29N 35°24' E 139°45'0 0.0
2018-Jun-17 23:59N 35°24' E 139°45'0 0.0
2018-Jun-17 23:29N 35°24' E 139°45'0 0.0
2018-Jun-17 22:59N 35°24' E 139°45'0 0.0
2018-Jun-17 22:29N 35°24' E 139°45'0 0.0
2018-Jun-17 21:59N 35°24' E 139°45'0 0.0
2018-Jun-17 21:29N 35°24' E 139°45'0 0.0
2018-Jun-17 20:59N 35°24' E 139°45'0 0.0
2018-Jun-17 20:29N 35°24' E 139°45'0 0.0
2018-Jun-17 19:53N 35°24' E 139°45'0 0.1
2018-Jun-17 19:29N 35°24' E 139°45'2 4.9
2018-Jun-17 19:00N 35°22' E 139°43'611.6
2018-Jun-17 18:30N 35°16' E 139°46'611.7
2018-Jun-17 18:00N 35°10' E 139°47'253 5.4
2018-Jun-15 19:16N 33°54' E 134°54'413.7
2018-Jun-15 19:00N 33°57' E 134°55'713.4
2018-Jun-15 18:30N 34°04' E 134°56'713.8
2018-Jun-15 18:00N 34°11' E 134°57'714.9
2018-Jun-15 17:30N 34°18' E 134°59'713.2
2018-Jun-15 17:00N 34°24' E 135°03'714.3
2018-Jun-15 16:30N 34°29' E 135°09'714.1
2018-Jun-15 16:00N 34°33' E 135°16'713.6
2018-Jun-15 15:30N 34°38' E 135°22'5 9.0
2018-Jun-15 14:59N 34°40' E 135°27'0 0.1
2018-Jun-15 14:29N 34°40' E 135°27'0 0.0
2018-Jun-15 13:59N 34°40' E 135°27'0 0.0
2018-Jun-15 13:29N 34°40' E 135°27'0 0.0
2018-Jun-15 12:59N 34°40' E 135°27'0 0.0
2018-Jun-15 12:29N 34°40' E 135°27'0 0.0
2018-Jun-15 11:59N 34°40' E 135°27'0 0.0
2018-Jun-15 11:29N 34°40' E 135°27'0 0.0
2018-Jun-15 10:59N 34°40' E 135°27'0 0.0
2018-Jun-15 10:29N 34°40' E 135°27'0 0.0
2018-Jun-15 09:53N 34°40' E 135°27'0 0.0
2018-Jun-15 09:29N 34°40' E 135°27'0 0.0
2018-Jun-15 08:53N 34°40' E 135°27'0 0.0
2018-Jun-15 08:29N 34°40' E 135°27'0 0.0
2018-Jun-15 07:59N 34°40' E 135°27'0 0.0
2018-Jun-15 07:29N 34°40' E 135°27'0 0.0
2018-Jun-15 06:59N 34°40' E 135°27'0 0.0
2018-Jun-15 06:17N 34°40' E 135°27'0 0.0
2018-Jun-15 05:59N 34°40' E 135°27'0 0.0
2018-Jun-15 05:17N 34°40' E 135°27'0 0.0
2018-Jun-15 04:58N 34°40' E 135°27'2 3.9
2018-Jun-15 04:30N 34°39' E 135°25'610.6
2018-Jun-15 03:59N 34°36' E 135°19'612.0
2018-Jun-15 03:30N 34°35' E 135°13'612.5
2018-Jun-15 03:00N 34°35' E 135°05'712.5
2018-Jun-15 02:29N 34°37' E 134°57'611.9
2018-Jun-15 02:01N 34°38' E 134°51'612.0
2018-Jun-15 01:30N 34°39' E 134°44'611.7
2018-Jun-15 01:00N 34°42' E 134°37'811.7
2018-Jun-15 00:19N 34°43' E 134°27'1 0.1
2018-Jun-14 14:26N 34°42' E 134°28'613.6
2018-Jun-14 14:00N 34°43' E 134°35'713.4
2018-Jun-14 13:30N 34°40' E 134°43'713.8
2018-Jun-14 13:00N 34°38' E 134°51'916.0
2018-Jun-14 12:27N 34°37' E 135°02'612.8
2018-Jun-14 12:01N 34°32' E 135°04'714.6
2018-Jun-14 11:31N 34°25' E 135°03'815.1
2018-Jun-14 11:01N 34°18' E 134°60'714.4
2018-Jun-14 10:30N 34°11' E 134°59'713.8
2018-Jun-14 10:00N 34°04' E 135°00'714.1
2018-Jun-14 09:30N 33°57' E 135°00'713.6
2018-Jun-14 09:00N 33°50' E 135°01'24811.3
2018-Jun-13 11:00N 35°11' E 139°46'611.4
2018-Jun-13 10:30N 35°17' E 139°45'612.6
2018-Jun-13 10:00N 35°23' E 139°42'612.7
2018-Jun-13 09:30N 35°27' E 139°48'611.3
2018-Jun-13 08:59N 35°33' E 139°51'611.6
2018-Jun-13 08:30N 35°37' E 139°46'2 0.2
2018-Jun-12 22:04N 35°38' E 139°45'0 0.6
2018-Jun-12 21:42N 35°38' E 139°46'1 4.3
2018-Jun-12 21:29N 35°37' E 139°46'4 8.6
2018-Jun-12 21:00N 35°34' E 139°49'2 3.2
2018-Jun-12 20:28N 35°34' E 139°51'0 0.0
2018-Jun-12 19:58N 35°34' E 139°51'0 0.0
2018-Jun-12 19:28N 35°34' E 139°51'0 0.1
2018-Jun-12 18:58N 35°34' E 139°51'0 0.0
2018-Jun-12 18:28N 35°34' E 139°51'0 0.0
2018-Jun-12 17:58N 35°34' E 139°51'  

Dump ship's entire track history